sensor_id;sensor_type;location;lat;lon;timestamp;pressure;altitude;pressure_sealevel;temperature;humidity
18678;BME280;9469;51.114;13.914;2023-05-23T00:02:40;98365.97;;;17.09;94.16
18678;BME280;9469;51.114;13.914;2023-05-23T00:07:55;98366.34;;;17.27;92.75
18678;BME280;9469;51.114;13.914;2023-05-23T00:13:00;98373.91;;;17.56;90.66
18678;BME280;9469;51.114;13.914;2023-05-23T00:18:10;98373.53;;;17.58;91.95
18678;BME280;9469;51.114;13.914;2023-05-23T00:23:16;98367.53;;;17.64;91.54
18678;BME280;9469;51.114;13.914;2023-05-23T00:28:24;98366.31;;;17.62;92.76
18678;BME280;9469;51.114;13.914;2023-05-23T00:33:32;98370.72;;;17.70;92.27
18678;BME280;9469;51.114;13.914;2023-05-23T00:38:40;98371.66;;;17.58;94.16
18678;BME280;9469;51.114;13.914;2023-05-23T00:43:46;98380.97;;;17.64;94.32
18678;BME280;9469;51.114;13.914;2023-05-23T00:48:54;98385.44;;;17.57;95.30
18678;BME280;9469;51.114;13.914;2023-05-23T00:54:03;98386.22;;;17.76;96.60
18678;BME280;9469;51.114;13.914;2023-05-23T00:59:09;98395.16;;;18.00;97.31
18678;BME280;9469;51.114;13.914;2023-05-23T01:04:18;98382.69;;;17.72;100.00
18678;BME280;9469;51.114;13.914;2023-05-23T01:09:30;98375.19;;;17.62;100.00
18678;BME280;9469;51.114;13.914;2023-05-23T01:14:41;98365.00;;;17.52;100.00
18678;BME280;9469;51.114;13.914;2023-05-23T01:20:05;98377.31;;;17.72;100.00
18678;BME280;9469;51.114;13.914;2023-05-23T01:25:22;98365.94;;;17.44;100.00
18678;BME280;9469;51.114;13.914;2023-05-23T01:30:37;98348.50;;;17.19;100.00
18678;BME280;9469;51.114;13.914;2023-05-23T01:35:46;98347.63;;;16.96;100.00
18678;BME280;9469;51.114;13.914;2023-05-23T01:40:52;98367.84;;;17.25;100.00
18678;BME280;9469;51.114;13.914;2023-05-23T01:46:06;98351.44;;;16.95;100.00
18678;BME280;9469;51.114;13.914;2023-05-23T01:51:13;98378.50;;;16.86;100.00
18678;BME280;9469;51.114;13.914;2023-05-23T01:56:22;98377.59;;;16.98;100.00
18678;BME280;9469;51.114;13.914;2023-05-23T02:01:32;98382.13;;;17.29;100.00
18678;BME280;9469;51.114;13.914;2023-05-23T02:06:44;98387.00;;;17.23;100.00
18678;BME280;9469;51.114;13.914;2023-05-23T02:11:51;98376.94;;;17.20;100.00
18678;BME280;9469;51.114;13.914;2023-05-23T02:17:03;98362.25;;;16.98;100.00
18678;BME280;9469;51.114;13.914;2023-05-23T02:22:09;98365.34;;;17.16;100.00
18678;BME280;9469;51.114;13.914;2023-05-23T02:27:15;98355.44;;;17.39;100.00
18678;BME280;9469;51.114;13.914;2023-05-23T02:32:27;98360.88;;;17.23;100.00
18678;BME280;9469;51.114;13.914;2023-05-23T02:37:35;98357.28;;;17.35;100.00
18678;BME280;9469;51.114;13.914;2023-05-23T02:42:42;98343.19;;;17.57;100.00
18678;BME280;9469;51.114;13.914;2023-05-23T02:47:53;98327.38;;;17.37;100.00
18678;BME280;9469;51.114;13.914;2023-05-23T02:52:59;98314.88;;;17.25;100.00
18678;BME280;9469;51.114;13.914;2023-05-23T02:58:06;98318.50;;;16.98;100.00
18678;BME280;9469;51.114;13.914;2023-05-23T03:03:15;98305.75;;;16.95;100.00
18678;BME280;9469;51.114;13.914;2023-05-23T03:08:20;98292.31;;;16.95;100.00
18678;BME280;9469;51.114;13.914;2023-05-23T03:13:27;98292.91;;;17.04;100.00
18678;BME280;9469;51.114;13.914;2023-05-23T03:18:35;98283.38;;;17.06;100.00
18678;BME280;9469;51.114;13.914;2023-05-23T03:23:45;98280.69;;;16.72;100.00
18678;BME280;9469;51.114;13.914;2023-05-23T03:28:56;98275.41;;;16.75;100.00
18678;BME280;9469;51.114;13.914;2023-05-23T03:34:06;98271.63;;;17.14;100.00
18678;BME280;9469;51.114;13.914;2023-05-23T03:39:11;98281.72;;;17.21;100.00
18678;BME280;9469;51.114;13.914;2023-05-23T03:44:18;98266.47;;;17.25;100.00
18678;BME280;9469;51.114;13.914;2023-05-23T03:49:27;98273.81;;;17.09;100.00
18678;BME280;9469;51.114;13.914;2023-05-23T03:54:35;98264.09;;;16.51;100.00
18678;BME280;9469;51.114;13.914;2023-05-23T03:59:42;98264.84;;;16.35;100.00
18678;BME280;9469;51.114;13.914;2023-05-23T04:04:52;98254.41;;;16.81;100.00
18678;BME280;9469;51.114;13.914;2023-05-23T04:10:00;98258.88;;;16.92;100.00
18678;BME280;9469;51.114;13.914;2023-05-23T04:15:07;98263.44;;;17.27;100.00
18678;BME280;9469;51.114;13.914;2023-05-23T04:20:25;98261.00;;;17.60;100.00
18678;BME280;9469;51.114;13.914;2023-05-23T04:25:31;98269.88;;;17.60;100.00
18678;BME280;9469;51.114;13.914;2023-05-23T04:31:05;98296.00;;;17.06;100.00
18678;BME280;9469;51.114;13.914;2023-05-23T04:36:14;98310.69;;;17.28;100.00
18678;BME280;9469;51.114;13.914;2023-05-23T04:41:25;98310.13;;;17.38;100.00
18678;BME280;9469;51.114;13.914;2023-05-23T04:46:52;98330.75;;;17.14;100.00
18678;BME280;9469;51.114;13.914;2023-05-23T04:52:18;98333.47;;;17.34;100.00
18678;BME280;9469;51.114;13.914;2023-05-23T04:57:24;98334.13;;;17.65;100.00
18678;BME280;9469;51.114;13.914;2023-05-23T05:02:31;98326.75;;;17.81;100.00
18678;BME280;9469;51.114;13.914;2023-05-23T05:07:44;98326.91;;;17.88;100.00
18678;BME280;9469;51.114;13.914;2023-05-23T05:12:56;98334.56;;;17.86;100.00
18678;BME280;9469;51.114;13.914;2023-05-23T05:18:10;98338.59;;;17.77;100.00
18678;BME280;9469;51.114;13.914;2023-05-23T05:23:24;98346.00;;;17.83;100.00
18678;BME280;9469;51.114;13.914;2023-05-23T05:28:31;98340.34;;;17.88;100.00
18678;BME280;9469;51.114;13.914;2023-05-23T05:33:39;98343.56;;;17.75;100.00
18678;BME280;9469;51.114;13.914;2023-05-23T05:38:51;98334.59;;;17.90;100.00
18678;BME280;9469;51.114;13.914;2023-05-23T05:43:57;98337.25;;;18.09;100.00
18678;BME280;9469;51.114;13.914;2023-05-23T05:49:04;98331.94;;;18.13;100.00
18678;BME280;9469;51.114;13.914;2023-05-23T05:54:15;98339.72;;;18.18;100.00
18678;BME280;9469;51.114;13.914;2023-05-23T05:59:37;98336.84;;;18.30;100.00
18678;BME280;9469;51.114;13.914;2023-05-23T06:10:04;98352.16;;;18.45;100.00
18678;BME280;9469;51.114;13.914;2023-05-23T06:15:11;98356.91;;;17.90;100.00
18678;BME280;9469;51.114;13.914;2023-05-23T06:20:21;98351.75;;;18.24;100.00
18678;BME280;9469;51.114;13.914;2023-05-23T06:25:30;98366.16;;;18.54;100.00
18678;BME280;9469;51.114;13.914;2023-05-23T06:30:35;98355.09;;;18.40;100.00
18678;BME280;9469;51.114;13.914;2023-05-23T06:35:42;98355.66;;;18.07;100.00
18678;BME280;9469;51.114;13.914;2023-05-23T06:40:50;98358.44;;;18.33;100.00
18678;BME280;9469;51.114;13.914;2023-05-23T06:45:58;98358.28;;;18.68;100.00
18678;BME280;9469;51.114;13.914;2023-05-23T06:51:04;98366.81;;;18.70;100.00
18678;BME280;9469;51.114;13.914;2023-05-23T06:56:15;98362.13;;;18.93;100.00
18678;BME280;9469;51.114;13.914;2023-05-23T07:01:29;98363.06;;;18.33;100.00
18678;BME280;9469;51.114;13.914;2023-05-23T07:06:35;98373.34;;;18.27;100.00
18678;BME280;9469;51.114;13.914;2023-05-23T07:11:45;98362.31;;;18.55;100.00
18678;BME280;9469;51.114;13.914;2023-05-23T07:16:51;98378.28;;;18.67;100.00
18678;BME280;9469;51.114;13.914;2023-05-23T07:22:03;98372.13;;;18.67;100.00
18678;BME280;9469;51.114;13.914;2023-05-23T07:27:15;98375.41;;;19.05;100.00
18678;BME280;9469;51.114;13.914;2023-05-23T07:32:22;98380.19;;;19.15;100.00
18678;BME280;9469;51.114;13.914;2023-05-23T07:37:31;98377.09;;;19.73;100.00
18678;BME280;9469;51.114;13.914;2023-05-23T07:42:39;98380.38;;;19.89;100.00
18678;BME280;9469;51.114;13.914;2023-05-23T07:47:48;98370.44;;;20.33;100.00
18678;BME280;9469;51.114;13.914;2023-05-23T07:53:01;98375.16;;;20.07;100.00
18678;BME280;9469;51.114;13.914;2023-05-23T07:58:14;98388.47;;;20.22;100.00
18678;BME280;9469;51.114;13.914;2023-05-23T08:03:21;98371.19;;;20.30;100.00
18678;BME280;9469;51.114;13.914;2023-05-23T08:08:37;98381.59;;;20.72;100.00
18678;BME280;9469;51.114;13.914;2023-05-23T08:13:52;98390.47;;;20.69;100.00
18678;BME280;9469;51.114;13.914;2023-05-23T08:19:23;98389.53;;;21.60;96.98
18678;BME280;9469;51.114;13.914;2023-05-23T08:24:29;98384.91;;;21.67;95.86
18678;BME280;9469;51.114;13.914;2023-05-23T08:29:41;98386.63;;;22.00;92.90
18678;BME280;9469;51.114;13.914;2023-05-23T08:34:48;98393.03;;;21.67;94.18
18678;BME280;9469;51.114;13.914;2023-05-23T08:39:56;98405.09;;;20.64;97.68
18678;BME280;9469;51.114;13.914;2023-05-23T08:45:17;98401.56;;;21.08;94.37
18678;BME280;9469;51.114;13.914;2023-05-23T08:50:27;98408.34;;;20.88;95.30
18678;BME280;9469;51.114;13.914;2023-05-23T08:55:38;98416.56;;;20.98;95.55
18678;BME280;9469;51.114;13.914;2023-05-23T09:00:48;98418.72;;;20.79;96.87
18678;BME280;9469;51.114;13.914;2023-05-23T09:05:59;98409.94;;;20.92;95.23
18678;BME280;9469;51.114;13.914;2023-05-23T09:11:05;98419.53;;;20.83;97.01
18678;BME280;9469;51.114;13.914;2023-05-23T09:16:18;98430.56;;;20.63;96.78
18678;BME280;9469;51.114;13.914;2023-05-23T09:21:30;98432.09;;;21.05;95.85
18678;BME280;9469;51.114;13.914;2023-05-23T09:26:46;98427.25;;;21.31;94.59
18678;BME280;9469;51.114;13.914;2023-05-23T09:32:09;98418.44;;;20.91;94.83
18678;BME280;9469;51.114;13.914;2023-05-23T09:37:15;98424.06;;;20.71;93.46
18678;BME280;9469;51.114;13.914;2023-05-23T09:42:23;98430.06;;;20.51;96.16
18678;BME280;9469;51.114;13.914;2023-05-23T09:47:32;98437.72;;;20.12;100.00
18678;BME280;9469;51.114;13.914;2023-05-23T09:52:37;98429.38;;;19.91;100.00
18678;BME280;9469;51.114;13.914;2023-05-23T09:57:43;98439.16;;;19.73;100.00
18678;BME280;9469;51.114;13.914;2023-05-23T10:02:59;98442.38;;;19.29;100.00
18678;BME280;9469;51.114;13.914;2023-05-23T10:08:15;98448.31;;;19.65;100.00
18678;BME280;9469;51.114;13.914;2023-05-23T10:13:28;98450.16;;;19.34;100.00
18678;BME280;9469;51.114;13.914;2023-05-23T10:19:05;98462.00;;;19.49;100.00
18678;BME280;9469;51.114;13.914;2023-05-23T10:24:11;98462.66;;;19.72;100.00
18678;BME280;9469;51.114;13.914;2023-05-23T10:29:19;98470.53;;;19.81;100.00
18678;BME280;9469;51.114;13.914;2023-05-23T10:34:33;98471.44;;;19.66;100.00
18678;BME280;9469;51.114;13.914;2023-05-23T10:39:52;98475.00;;;19.44;97.36
18678;BME280;9469;51.114;13.914;2023-05-23T10:45:16;98480.56;;;19.84;94.69
18678;BME280;9469;51.114;13.914;2023-05-23T10:50:33;98485.81;;;20.69;90.44
18678;BME280;9469;51.114;13.914;2023-05-23T10:55:48;98485.34;;;20.60;89.36
18678;BME280;9469;51.114;13.914;2023-05-23T11:00:55;98485.56;;;21.25;88.29
18678;BME280;9469;51.114;13.914;2023-05-23T11:06:07;98482.38;;;20.36;88.62
18678;BME280;9469;51.114;13.914;2023-05-23T11:12:00;98493.81;;;20.55;87.43
18678;BME280;9469;51.114;13.914;2023-05-23T11:17:24;98499.28;;;20.62;88.93
18678;BME280;9469;51.114;13.914;2023-05-23T11:22:52;98506.78;;;20.83;90.14
18678;BME280;9469;51.114;13.914;2023-05-23T11:27:58;98503.88;;;20.25;91.79
18678;BME280;9469;51.114;13.914;2023-05-23T11:33:06;98510.66;;;20.45;91.80
18678;BME280;9469;51.114;13.914;2023-05-23T11:38:28;98495.72;;;20.55;92.89
18678;BME280;9469;51.114;13.914;2023-05-23T11:43:34;98508.47;;;20.21;91.58
18678;BME280;9469;51.114;13.914;2023-05-23T11:48:44;98504.75;;;19.77;92.21
18678;BME280;9469;51.114;13.914;2023-05-23T11:53:52;98502.06;;;19.77;93.11
18678;BME280;9469;51.114;13.914;2023-05-23T11:58:57;98504.25;;;19.42;94.93
18678;BME280;9469;51.114;13.914;2023-05-23T12:04:08;98515.22;;;19.07;96.83
18678;BME280;9469;51.114;13.914;2023-05-23T12:09:19;98507.78;;;19.23;95.80
18678;BME280;9469;51.114;13.914;2023-05-23T12:14:28;98508.00;;;19.60;95.64
18678;BME280;9469;51.114;13.914;2023-05-23T12:19:35;98505.78;;;19.43;94.68
18678;BME280;9469;51.114;13.914;2023-05-23T12:24:52;98508.94;;;20.00;93.63
18678;BME280;9469;51.114;13.914;2023-05-23T12:30:04;98513.88;;;19.95;94.07
18678;BME280;9469;51.114;13.914;2023-05-23T12:35:13;98517.53;;;19.80;95.12
18678;BME280;9469;51.114;13.914;2023-05-23T12:40:22;98517.94;;;20.41;91.78
18678;BME280;9469;51.114;13.914;2023-05-23T12:45:32;98512.53;;;20.12;91.78
18678;BME280;9469;51.114;13.914;2023-05-23T12:50:38;98507.50;;;19.54;92.61
18678;BME280;9469;51.114;13.914;2023-05-23T12:55:46;98513.00;;;19.12;95.24
18678;BME280;9469;51.114;13.914;2023-05-23T13:00:53;98511.63;;;19.22;95.14
18678;BME280;9469;51.114;13.914;2023-05-23T13:05:59;98522.59;;;19.59;94.42
18678;BME280;9469;51.114;13.914;2023-05-23T13:11:07;98517.69;;;19.15;95.72
18678;BME280;9469;51.114;13.914;2023-05-23T13:16:24;98520.28;;;19.34;94.66
18678;BME280;9469;51.114;13.914;2023-05-23T13:21:31;98533.31;;;18.84;96.93
18678;BME280;9469;51.114;13.914;2023-05-23T13:26:40;98524.69;;;19.20;95.96
18678;BME280;9469;51.114;13.914;2023-05-23T13:31:46;98528.94;;;18.98;95.15
18678;BME280;9469;51.114;13.914;2023-05-23T13:36:51;98525.94;;;18.81;95.00
18678;BME280;9469;51.114;13.914;2023-05-23T13:41:59;98527.72;;;19.18;93.64
18678;BME280;9469;51.114;13.914;2023-05-23T13:47:12;98534.69;;;18.74;92.98
18678;BME280;9469;51.114;13.914;2023-05-23T13:52:19;98551.13;;;18.50;94.27
18678;BME280;9469;51.114;13.914;2023-05-23T13:57:35;98558.19;;;18.20;96.34
18678;BME280;9469;51.114;13.914;2023-05-23T14:02:42;98558.19;;;18.20;97.89
18678;BME280;9469;51.114;13.914;2023-05-23T14:07:48;98565.00;;;18.33;97.49
18678;BME280;9469;51.114;13.914;2023-05-23T14:13:04;98568.88;;;18.16;98.90
18678;BME280;9469;51.114;13.914;2023-05-23T14:18:10;98572.50;;;18.24;99.79
18678;BME280;9469;51.114;13.914;2023-05-23T14:23:17;98571.16;;;18.33;99.03
18678;BME280;9469;51.114;13.914;2023-05-23T14:28:25;98564.75;;;18.03;100.00
18678;BME280;9469;51.114;13.914;2023-05-23T14:33:38;98575.31;;;18.46;100.00
18678;BME280;9469;51.114;13.914;2023-05-23T14:38:46;98576.19;;;18.16;100.00
18678;BME280;9469;51.114;13.914;2023-05-23T14:43:58;98575.00;;;18.32;100.00
18678;BME280;9469;51.114;13.914;2023-05-23T14:49:03;98566.44;;;18.46;100.00
18678;BME280;9469;51.114;13.914;2023-05-23T14:54:09;98572.56;;;18.08;100.00
18678;BME280;9469;51.114;13.914;2023-05-23T14:59:21;98576.97;;;17.81;100.00
18678;BME280;9469;51.114;13.914;2023-05-23T15:04:26;98582.03;;;17.67;100.00
18678;BME280;9469;51.114;13.914;2023-05-23T15:09:35;98585.22;;;17.57;100.00
18678;BME280;9469;51.114;13.914;2023-05-23T15:14:43;98587.34;;;17.64;100.00
18678;BME280;9469;51.114;13.914;2023-05-23T15:19:49;98586.84;;;17.46;100.00
18678;BME280;9469;51.114;13.914;2023-05-23T15:24:59;98602.91;;;17.74;100.00
18678;BME280;9469;51.114;13.914;2023-05-23T15:30:10;98603.41;;;17.48;100.00
18678;BME280;9469;51.114;13.914;2023-05-23T15:35:20;98594.38;;;16.66;100.00
18678;BME280;9469;51.114;13.914;2023-05-23T15:40:26;98597.31;;;16.61;100.00
18678;BME280;9469;51.114;13.914;2023-05-23T15:45:34;98614.44;;;16.57;100.00
18678;BME280;9469;51.114;13.914;2023-05-23T15:50:39;98612.47;;;16.41;100.00
18678;BME280;9469;51.114;13.914;2023-05-23T15:55:45;98619.88;;;16.72;100.00
18678;BME280;9469;51.114;13.914;2023-05-23T16:00:53;98613.34;;;16.58;100.00
18678;BME280;9469;51.114;13.914;2023-05-23T16:05:59;98616.09;;;15.97;100.00
18678;BME280;9469;51.114;13.914;2023-05-23T16:11:04;98614.31;;;16.01;100.00
18678;BME280;9469;51.114;13.914;2023-05-23T16:16:13;98623.38;;;15.72;100.00
18678;BME280;9469;51.114;13.914;2023-05-23T16:21:20;98633.56;;;15.67;100.00
18678;BME280;9469;51.114;13.914;2023-05-23T16:26:26;98637.31;;;15.09;100.00
18678;BME280;9469;51.114;13.914;2023-05-23T16:31:38;98625.31;;;15.15;100.00
18678;BME280;9469;51.114;13.914;2023-05-23T16:36:48;98618.72;;;15.13;100.00
18678;BME280;9469;51.114;13.914;2023-05-23T16:41:55;98631.34;;;15.24;100.00
18678;BME280;9469;51.114;13.914;2023-05-23T16:47:07;98628.75;;;15.16;100.00
18678;BME280;9469;51.114;13.914;2023-05-23T16:52:17;98624.22;;;14.95;100.00
18678;BME280;9469;51.114;13.914;2023-05-23T16:57:23;98618.66;;;15.33;100.00
18678;BME280;9469;51.114;13.914;2023-05-23T17:02:31;98637.50;;;15.37;100.00
18678;BME280;9469;51.114;13.914;2023-05-23T17:07:37;98638.75;;;14.94;100.00
18678;BME280;9469;51.114;13.914;2023-05-23T17:12:44;98657.03;;;14.92;100.00
18678;BME280;9469;51.114;13.914;2023-05-23T17:17:53;98650.00;;;14.88;100.00
18678;BME280;9469;51.114;13.914;2023-05-23T17:22:58;98658.94;;;14.92;100.00
18678;BME280;9469;51.114;13.914;2023-05-23T17:28:07;98657.09;;;14.63;100.00
18678;BME280;9469;51.114;13.914;2023-05-23T17:33:15;98668.41;;;14.69;100.00
18678;BME280;9469;51.114;13.914;2023-05-23T17:38:23;98684.63;;;14.52;100.00
18678;BME280;9469;51.114;13.914;2023-05-23T17:43:30;98700.97;;;14.50;100.00
18678;BME280;9469;51.114;13.914;2023-05-23T17:48:39;98697.75;;;14.65;100.00
18678;BME280;9469;51.114;13.914;2023-05-23T17:53:49;98703.34;;;14.72;100.00
18678;BME280;9469;51.114;13.914;2023-05-23T17:58:55;98716.03;;;14.34;100.00
18678;BME280;9469;51.114;13.914;2023-05-23T18:04:04;98702.00;;;14.08;100.00
18678;BME280;9469;51.114;13.914;2023-05-23T18:09:11;98715.31;;;14.16;100.00
18678;BME280;9469;51.114;13.914;2023-05-23T18:14:20;98727.16;;;14.07;100.00
18678;BME280;9469;51.114;13.914;2023-05-23T18:19:33;98730.47;;;13.75;100.00
18678;BME280;9469;51.114;13.914;2023-05-23T18:24:39;98733.22;;;13.87;100.00
18678;BME280;9469;51.114;13.914;2023-05-23T18:29:45;98746.03;;;13.73;100.00
18678;BME280;9469;51.114;13.914;2023-05-23T18:34:53;98757.25;;;13.49;100.00
18678;BME280;9469;51.114;13.914;2023-05-23T18:40:00;98758.16;;;13.61;100.00
18678;BME280;9469;51.114;13.914;2023-05-23T18:45:08;98771.34;;;13.66;100.00
18678;BME280;9469;51.114;13.914;2023-05-23T18:50:17;98791.03;;;13.28;100.00
18678;BME280;9469;51.114;13.914;2023-05-23T18:55:23;98784.44;;;13.25;100.00
18678;BME280;9469;51.114;13.914;2023-05-23T19:00:29;98791.38;;;13.26;100.00
18678;BME280;9469;51.114;13.914;2023-05-23T19:05:38;98810.84;;;13.35;100.00
18678;BME280;9469;51.114;13.914;2023-05-23T19:10:46;98822.31;;;13.19;100.00
18678;BME280;9469;51.114;13.914;2023-05-23T19:15:55;98818.56;;;13.28;100.00
18678;BME280;9469;51.114;13.914;2023-05-23T19:21:03;98812.91;;;13.13;100.00
18678;BME280;9469;51.114;13.914;2023-05-23T19:26:08;98838.66;;;13.34;100.00
18678;BME280;9469;51.114;13.914;2023-05-23T19:31:14;98856.09;;;13.15;100.00
18678;BME280;9469;51.114;13.914;2023-05-23T19:36:22;98862.06;;;13.46;100.00
18678;BME280;9469;51.114;13.914;2023-05-23T19:41:31;98864.28;;;13.61;100.00
18678;BME280;9469;51.114;13.914;2023-05-23T19:46:37;98868.22;;;13.29;100.00
18678;BME280;9469;51.114;13.914;2023-05-23T19:51:48;98877.78;;;13.13;100.00
18678;BME280;9469;51.114;13.914;2023-05-23T19:56:53;98883.97;;;12.83;100.00
18678;BME280;9469;51.114;13.914;2023-05-23T20:02:00;98882.75;;;12.98;100.00
18678;BME280;9469;51.114;13.914;2023-05-23T20:07:12;98894.38;;;13.02;100.00
18678;BME280;9469;51.114;13.914;2023-05-23T20:12:17;98910.63;;;13.22;100.00
18678;BME280;9469;51.114;13.914;2023-05-23T20:17:23;98902.22;;;12.98;100.00
18678;BME280;9469;51.114;13.914;2023-05-23T20:22:32;98911.41;;;12.75;100.00
18678;BME280;9469;51.114;13.914;2023-05-23T20:27:40;98920.75;;;12.55;100.00
18678;BME280;9469;51.114;13.914;2023-05-23T20:32:52;98925.34;;;12.63;100.00
18678;BME280;9469;51.114;13.914;2023-05-23T20:38:00;98925.34;;;12.33;100.00
18678;BME280;9469;51.114;13.914;2023-05-23T20:43:08;98927.00;;;12.20;100.00
18678;BME280;9469;51.114;13.914;2023-05-23T20:48:14;98941.41;;;12.19;100.00
18678;BME280;9469;51.114;13.914;2023-05-23T20:53:22;98942.44;;;12.32;100.00
18678;BME280;9469;51.114;13.914;2023-05-23T20:58:28;98930.66;;;12.33;100.00
18678;BME280;9469;51.114;13.914;2023-05-23T21:03:38;98947.31;;;12.30;100.00
18678;BME280;9469;51.114;13.914;2023-05-23T21:08:48;98943.31;;;12.49;100.00
18678;BME280;9469;51.114;13.914;2023-05-23T21:13:55;98950.44;;;12.62;100.00
18678;BME280;9469;51.114;13.914;2023-05-23T21:19:01;98956.94;;;12.70;100.00
18678;BME280;9469;51.114;13.914;2023-05-23T21:24:09;98951.31;;;12.49;100.00
18678;BME280;9469;51.114;13.914;2023-05-23T21:29:15;98964.19;;;12.47;100.00
18678;BME280;9469;51.114;13.914;2023-05-23T21:34:22;98959.66;;;12.03;100.00
18678;BME280;9469;51.114;13.914;2023-05-23T21:39:30;98966.69;;;12.21;100.00
18678;BME280;9469;51.114;13.914;2023-05-23T21:44:54;98970.69;;;12.10;100.00
18678;BME280;9469;51.114;13.914;2023-05-23T21:50:00;98970.91;;;12.45;100.00
18678;BME280;9469;51.114;13.914;2023-05-23T21:55:08;98981.88;;;12.35;100.00
18678;BME280;9469;51.114;13.914;2023-05-23T22:00:15;98977.56;;;12.25;100.00
18678;BME280;9469;51.114;13.914;2023-05-23T22:05:21;98986.84;;;12.28;100.00
18678;BME280;9469;51.114;13.914;2023-05-23T22:10:28;98989.06;;;12.34;100.00
18678;BME280;9469;51.114;13.914;2023-05-23T22:15:37;98981.13;;;12.20;100.00
18678;BME280;9469;51.114;13.914;2023-05-23T22:20:43;98990.03;;;12.38;100.00
18678;BME280;9469;51.114;13.914;2023-05-23T22:25:53;98975.31;;;12.18;100.00
18678;BME280;9469;51.114;13.914;2023-05-23T22:31:00;98985.78;;;12.15;100.00
18678;BME280;9469;51.114;13.914;2023-05-23T22:36:08;98998.53;;;12.18;100.00
18678;BME280;9469;51.114;13.914;2023-05-23T22:41:16;98990.22;;;12.19;100.00
18678;BME280;9469;51.114;13.914;2023-05-23T22:46:23;98998.41;;;12.23;100.00
18678;BME280;9469;51.114;13.914;2023-05-23T22:51:30;98998.50;;;11.96;100.00
18678;BME280;9469;51.114;13.914;2023-05-23T22:56:39;98995.84;;;11.96;100.00
18678;BME280;9469;51.114;13.914;2023-05-23T23:01:44;99000.19;;;11.92;100.00
18678;BME280;9469;51.114;13.914;2023-05-23T23:06:49;98993.94;;;11.74;100.00
18678;BME280;9469;51.114;13.914;2023-05-23T23:11:58;98980.44;;;11.57;100.00
18678;BME280;9469;51.114;13.914;2023-05-23T23:17:06;98987.84;;;11.60;100.00
18678;BME280;9469;51.114;13.914;2023-05-23T23:22:12;98978.56;;;11.58;100.00
18678;BME280;9469;51.114;13.914;2023-05-23T23:27:20;98981.25;;;11.44;100.00
18678;BME280;9469;51.114;13.914;2023-05-23T23:32:32;98997.47;;;11.56;100.00
18678;BME280;9469;51.114;13.914;2023-05-23T23:37:37;98999.47;;;12.00;100.00
18678;BME280;9469;51.114;13.914;2023-05-23T23:42:49;98995.41;;;11.80;100.00
18678;BME280;9469;51.114;13.914;2023-05-23T23:47:54;98995.06;;;11.46;100.00
18678;BME280;9469;51.114;13.914;2023-05-23T23:53:02;98986.19;;;11.37;100.00
18678;BME280;9469;51.114;13.914;2023-05-23T23:58:14;99013.31;;;11.39;100.00
